Time;durP1;ratioP1;P1;durP2;ratioP2;P2;SDS_P1;SDS_P2;PMS_P1;PMS_P2;Temp;Humidity;BMP_temperature;BMP_pressure;BME280_temperature;BME280_humidity;BME280_pressure;Samples;Min_cycle;Max_cycle;Signal;HPM_P1;HPM_P2
2022/06/16 00:00:47;;;;;;;44.10;25.05;;;;;;;30.27;63.45;100984.81;5065155;28;66353;-37
2022/06/16 00:03:18;;;;;;;;;;;;;;;30.08;66.89;100980.25;5063708;28;70239;-37
2022/06/16 00:05:48;;;;;;;37.88;23.70;;;;;;;30.43;65.53;100993.50;5059203;28;67276;-36
2022/06/16 00:08:20;;;;;;;38.00;20.92;;;;;;;30.50;65.69;100994.28;5059045;28;69603;-37
2022/06/16 00:13:41;;;;;;;30.92;20.17;;;;;;;30.66;66.14;101004.63;5072027;28;70504;-39
2022/06/16 00:16:13;;;;;;;28.27;17.47;;;;;;;30.69;65.15;100996.06;5063466;27;65226;-39
2022/06/16 00:18:44;;;;;;;27.20;17.75;;;;;;;30.71;66.04;100985.88;5055907;28;68931;-38
2022/06/16 00:21:16;;;;;;;24.20;17.35;;;;;;;30.70;66.30;100984.22;5061600;28;66544;-38
2022/06/16 00:23:47;;;;;;;24.98;16.15;;;;;;;30.72;65.95;100987.50;5051377;28;69295;-39
2022/06/16 00:26:22;;;;;;;25.58;16.80;;;;;;;30.80;66.53;100983.75;5068043;28;66684;-39
2022/06/16 00:28:53;;;;;;;21.05;16.20;;;;;;;30.88;65.80;100985.38;5059207;28;69530;-38
2022/06/16 00:31:28;;;;;;;33.28;17.50;;;;;;;30.90;65.97;100973.28;5071033;28;65368;-38
2022/06/16 00:33:59;;;;;;;29.20;16.10;;;;;;;30.92;65.99;100986.59;5057701;28;70267;-38
2022/06/16 00:36:30;;;;;;;36.75;16.92;;;;;;;30.91;66.13;100980.34;5053542;28;66100;-39
2022/06/16 00:39:01;;;;;;;35.13;16.98;;;;;;;30.95;65.60;100983.44;5057538;28;69910;-38
2022/06/16 00:41:32;;;;;;;33.85;17.00;;;;;;;30.97;65.71;100984.06;5061039;28;66539;-39
2022/06/16 00:44:36;;;;;;;23.67;16.13;;;;;;;31.03;63.86;100972.34;5049793;28;69671;-39
2022/06/16 00:47:07;;;;;;;21.00;13.82;;;;;;;31.17;62.67;100973.09;5041426;28;66292;-39
2022/06/16 00:49:42;;;;;;;18.00;13.25;;;;;;;31.10;62.14;100962.31;5044798;28;70943;-39
2022/06/16 00:52:17;;;;;;;19.30;13.43;;;;;;;31.36;61.90;100984.84;5067690;28;65799;-39
2022/06/16 00:55:12;;;;;;;16.00;12.95;;;;;;;31.25;62.78;100982.84;5049086;28;70351;-39
2022/06/16 00:57:48;;;;;;;17.05;12.93;;;;;;;31.21;61.55;100957.25;5050856;28;66605;-39
2022/06/16 01:02:55;;;;;;;22.77;13.80;;;;;;;31.54;60.86;100995.78;5057739;28;66148;-38
2022/06/16 01:05:26;;;;;;;21.15;14.52;;;;;;;31.62;60.59;101019.03;5039419;28;70350;-39
2022/06/16 01:07:58;;;;;;;25.17;14.50;;;;;;;31.53;60.69;100999.50;5052783;28;66381;-39
2022/06/16 01:10:41;;;;;;;16.42;13.55;;;;;;;31.71;60.62;101031.28;5051686;28;70459;-38
2022/06/16 01:13:43;;;;;;;18.65;14.35;;;;;;;31.28;60.57;100949.88;5049185;28;66785;-38
2022/06/16 01:16:35;;;;;;;15.10;13.27;;;;;;;31.67;60.50;101027.34;5049316;28;69296;-38
2022/06/16 01:19:31;;;;;;;17.38;14.57;;;;;;;31.76;60.37;101031.44;5039544;28;66255;-38
2022/06/16 01:22:10;;;;;;;23.75;14.27;;;;;;;31.80;60.12;101020.97;5058178;28;69768;-38
2022/06/16 01:25:38;;;;;;;15.43;14.00;;;;;;;31.70;60.45;101026.06;5052336;28;65456;-38
2022/06/16 01:28:24;;;;;;;15.48;13.85;;;;;;;31.89;59.54;101030.47;5036471;28;69377;-38
2022/06/16 01:31:09;;;;;;;19.73;14.57;;;;;;;31.92;59.68;101027.34;5040999;28;66635;-38
2022/06/16 01:34:00;;;;;;;18.65;14.25;;;;;;;31.88;59.50;101017.97;5063366;28;70143;-38
2022/06/16 01:36:32;;;;;;;;;;;;;;;31.64;60.80;101022.38;5057844;28;65436;-38
2022/06/16 01:39:26;;;;;;;17.55;13.43;;;;;;;31.87;59.47;101021.72;5044272;28;70600;-39
2022/06/16 01:42:19;;;;;;;15.18;13.68;;;;;;;31.56;59.35;100950.25;5047846;28;66609;-38
2022/06/16 01:45:18;;;;;;;14.25;12.90;;;;;;;32.08;59.02;101027.81;5011631;28;70567;-38
2022/06/16 01:47:51;;;;;;;18.45;13.20;;;;;;;32.14;58.57;101029.63;5042601;28;66637;-38
2022/06/16 01:50:37;;;;;;;17.02;13.30;;;;;;;31.68;58.75;100949.53;5040824;28;69186;-39
2022/06/16 01:53:21;;;;;;;14.37;13.13;;;;;;;32.16;58.79;101030.25;5049746;28;66076;-38
2022/06/16 01:56:17;;;;;;;14.20;12.88;;;;;;;31.76;58.45;100949.22;5039958;28;70520;-39
2022/06/16 01:58:57;;;;;;;18.48;12.85;;;;;;;32.12;58.23;101001.88;5042169;28;66703;-39
2022/06/16 02:01:38;;;;;;;13.73;12.40;;;;;;;32.28;58.15;101033.84;5037058;28;70737;-38
2022/06/16 02:04:18;;;;;;;17.88;12.88;;;;;;;32.28;57.76;101031.13;5045215;28;66114;-38
2022/06/16 02:06:55;;;;;;;15.50;13.15;;;;;;;32.33;58.07;101012.28;5050293;28;69767;-39
2022/06/16 02:09:44;;;;;;;13.75;12.52;;;;;;;31.96;57.85;100949.06;5048511;28;66092;-38
2022/06/16 02:15:24;;;;;;;18.90;12.80;;;;;;;32.37;58.04;101005.34;5053715;28;66321;-38
2022/06/16 02:18:07;;;;;;;13.38;12.20;;;;;;;32.10;57.82;100955.16;5030552;28;70056;-39
2022/06/16 02:20:42;;;;;;;13.95;12.40;;;;;;;32.10;57.61;100957.88;5043084;28;66427;-38
2022/06/16 02:23:15;;;;;;;14.43;12.25;;;;;;;32.43;57.81;101004.44;5042610;28;69575;-39
2022/06/16 02:25:48;;;;;;;12.38;11.27;;;;;;;32.35;57.69;100995.78;5051933;28;66547;-39
2022/06/16 02:28:20;;;;;;;12.82;11.48;;;;;;;32.49;57.60;101014.44;5060168;28;69563;-39
2022/06/16 02:30:58;;;;;;;12.48;11.30;;;;;;;32.48;57.34;101017.34;5033967;28;65197;-38
2022/06/16 02:33:41;;;;;;;13.57;12.10;;;;;;;32.51;57.49;101021.50;5054500;28;70457;-38
2022/06/16 02:36:37;;;;;;;12.73;11.48;;;;;;;32.54;57.55;101010.19;5049965;28;65709;-39
2022/06/16 02:39:10;;;;;;;12.70;11.40;;;;;;;32.56;57.09;101003.47;5037774;28;70309;-38
2022/06/16 02:42:11;;;;;;;12.02;10.95;;;;;;;32.48;57.47;101006.50;5040378;28;66385;-38
2022/06/16 02:45:04;;;;;;;11.80;10.73;;;;;;;32.58;57.10;101005.97;5017810;28;70079;-38
2022/06/16 02:47:57;;;;;;;12.57;11.32;;;;;;;32.62;57.14;101002.53;5054686;28;65347;-38
2022/06/16 02:50:57;;;;;;;11.68;10.75;;;;;;;32.63;57.06;101003.41;5056591;28;69970;-38
2022/06/16 02:54:11;;;;;;;12.02;10.65;;;;;;;32.62;57.11;100990.84;5044378;28;66849;-39
2022/06/16 02:56:56;;;;;;;12.43;11.27;;;;;;;32.66;57.12;100992.06;5039007;28;69491;-39
2022/06/16 02:59:44;;;;;;;12.05;10.93;;;;;;;32.70;56.91;100987.81;5054487;28;66639;-39
2022/06/16 03:02:20;;;;;;;11.63;10.45;;;;;;;32.65;56.87;100980.38;5054904;28;70174;-38
2022/06/16 03:04:56;;;;;;;11.38;10.38;;;;;;;32.75;56.67;100985.25;5050613;28;66364;-38
2022/06/16 03:07:28;;;;;;;10.82;10.02;;;;;;;32.62;56.76;100969.94;5042690;28;69773;-38
2022/06/16 03:13:09;;;;;;;10.95;9.82;;;;;;;32.76;56.81;100973.31;5054413;28;69897;-39
2022/06/16 03:15:40;;;;;;;10.65;9.85;;;;;;;32.78;56.79;100968.47;5049029;28;65399;-39
2022/06/16 03:18:11;;;;;;;10.38;9.52;;;;;;;32.81;56.93;100964.47;5036661;28;70117;-39
2022/06/16 03:20:43;;;;;;;11.18;10.30;;;;;;;32.82;56.80;100975.13;5056177;28;67758;-39
2022/06/16 03:23:14;;;;;;;10.80;9.80;;;;;;;32.83;56.93;100965.91;5057940;28;69826;-39
2022/06/16 03:25:47;;;;;;;12.20;10.13;;;;;;;32.86;56.83;100964.63;5048736;28;66292;-38
2022/06/16 03:28:18;;;;;;;10.80;9.87;;;;;;;32.85;57.04;100958.34;5043609;28;70498;-38
2022/06/16 03:30:48;;;;;;;10.27;9.40;;;;;;;32.81;57.00;100946.28;5059005;28;65774;-39
2022/06/16 03:33:21;;;;;;;11.50;10.40;;;;;;;32.89;57.09;100942.41;5026269;28;69940;-38
2022/06/16 03:35:55;;;;;;;11.85;10.30;;;;;;;32.92;56.80;100944.66;5056692;28;66627;-38
2022/06/16 03:41:04;;;;;;;10.50;9.60;;;;;;;32.96;56.72;100936.88;5069713;28;66626;-38
2022/06/16 03:43:36;;;;;;;11.03;10.03;;;;;;;32.84;56.69;100923.25;5066182;28;69779;-38
2022/06/16 03:46:16;;;;;;;10.65;9.75;;;;;;;32.95;56.76;100936.03;5067942;28;66626;-38
2022/06/16 03:48:57;;;;;;;;;;;;;;;32.63;57.57;100933.59;5057070;28;69905;-39
2022/06/16 03:51:42;;;;;;;11.73;10.23;;;;;;;32.96;56.73;100931.44;5058415;28;65740;-41
2022/06/16 03:54:17;;;;;;;11.20;10.23;;;;;;;32.96;56.58;100920.56;5065042;28;70613;-38
2022/06/16 03:56:48;;;;;;;10.88;10.05;;;;;;;32.99;56.52;100915.50;5053767;28;65667;-39
2022/06/16 03:59:21;;;;;;;10.25;9.20;;;;;;;32.99;56.38;100920.94;5063620;28;70107;-37
2022/06/16 04:01:59;;;;;;;10.93;9.90;;;;;;;33.07;56.43;100922.50;5053961;28;65756;-39
2022/06/16 04:04:34;;;;;;;12.07;9.68;;;;;;;33.07;56.60;100922.50;5041216;28;70463;-38
2022/06/16 04:07:09;;;;;;;11.45;10.40;;;;;;;33.07;56.67;100911.63;5062532;28;66297;-38
2022/06/16 04:10:07;;;;;;;10.80;10.05;;;;;;;32.99;56.36;100898.34;5056426;28;69075;-39
2022/06/16 04:12:40;;;;;;;11.55;10.43;;;;;;;33.07;56.67;100900.75;5059167;28;65663;-39
2022/06/16 04:15:15;;;;;;;11.93;10.68;;;;;;;33.08;56.33;100899.72;5065114;27;70012;-39
2022/06/16 04:17:46;;;;;;;10.93;10.00;;;;;;;33.06;56.58;100893.69;5047055;28;65446;-39
2022/06/16 04:20:26;;;;;;;13.25;11.43;;;;;;;32.97;56.24;100874.16;5049190;28;70534;-38
2022/06/16 04:23:01;;;;;;;11.70;10.80;;;;;;;33.09;56.41;100887.78;5043542;28;67348;-39
2022/06/16 04:25:34;;;;;;;14.68;11.27;;;;;;;33.07;56.39;100879.88;5056754;28;70316;-38
2022/06/16 04:28:21;;;;;;;12.30;10.93;;;;;;;33.06;56.46;100872.75;5066735;27;66628;-39
2022/06/16 04:30:58;;;;;;;12.25;11.25;;;;;;;32.94;56.67;100853.69;5077274;28;70082;-39
2022/06/16 04:33:34;;;;;;;12.07;11.05;;;;;;;33.06;56.54;100875.47;5076082;28;65630;-39
2022/06/16 04:36:08;;;;;;;12.85;11.63;;;;;;;33.09;56.17;100877.72;5068734;28;70595;-38
2022/06/16 04:38:44;;;;;;;13.23;11.80;;;;;;;33.09;56.53;100874.19;5045881;28;65349;-38
2022/06/16 04:41:17;;;;;;;15.68;11.55;;;;;;;33.01;56.45;100852.78;5056269;28;70036;-39
2022/06/16 04:43:50;;;;;;;13.35;11.45;;;;;;;33.11;56.41;100863.91;5056411;28;66272;-39
2022/06/16 04:46:24;;;;;;;16.08;11.75;;;;;;;33.12;56.21;100865.56;5055592;28;69547;-39
2022/06/16 04:48:55;;;;;;;16.42;11.57;;;;;;;33.13;56.32;100856.34;5039714;28;65377;-38
2022/06/16 04:51:26;;;;;;;12.68;11.10;;;;;;;33.09;56.25;100849.72;5059031;28;69423;-39
2022/06/16 04:53:57;;;;;;;13.18;11.82;;;;;;;33.12;56.39;100850.06;5053524;28;66000;-39
2022/06/16 04:56:42;;;;;;;13.98;11.65;;;;;;;33.07;56.33;100833.66;5026296;28;70300;-39
2022/06/16 04:59:36;;;;;;;12.40;11.38;;;;;;;33.16;56.38;100839.56;5060171;28;66608;-39
2022/06/16 05:02:26;;;;;;;15.68;11.57;;;;;;;33.08;56.36;100832.59;5055313;28;69274;-39
2022/06/16 05:05:20;;;;;;;14.38;11.95;;;;;;;33.11;56.34;100831.28;5052941;28;65950;-38
2022/06/16 05:08:00;;;;;;;14.45;11.70;;;;;;;33.17;56.14;100830.34;5064507;28;69740;-39
2022/06/16 05:10:58;;;;;;;13.40;12.18;;;;;;;33.18;56.28;100831.97;5059603;28;66568;-40
2022/06/16 05:13:46;;;;;;;13.27;12.07;;;;;;;33.16;56.41;100823.25;5058133;28;69921;-41
2022/06/16 05:16:28;;;;;;;;;;;;;;;32.85;57.14;100822.53;5062528;28;66584;-39
2022/06/16 05:19:23;;;;;;;14.40;13.00;;;;;;;33.17;56.32;100827.63;5063313;28;70582;-40
2022/06/16 05:22:18;;;;;;;12.93;11.82;;;;;;;33.20;56.42;100818.16;5069021;27;65770;-40
2022/06/16 05:25:07;;;;;;;13.63;12.30;;;;;;;33.21;56.60;100817.94;5064750;28;71288;-40
2022/06/16 05:27:56;;;;;;;12.85;11.77;;;;;;;33.17;56.15;100808.59;5053119;28;66209;-39
2022/06/16 05:31:02;;;;;;;13.95;12.02;;;;;;;33.24;56.56;100820.19;5042253;28;69113;-39
2022/06/16 05:33:38;;;;;;;15.98;11.73;;;;;;;33.13;56.33;100802.00;5050051;28;65237;-39
2022/06/16 05:36:29;;;;;;;12.68;11.48;;;;;;;33.27;56.36;100803.41;5041059;28;69709;-37
2022/06/16 05:39:06;;;;;;;12.85;11.95;;;;;;;33.31;56.16;100793.69;5041664;28;66078;-39
2022/06/16 05:41:53;;;;;;;12.63;11.70;;;;;;;33.32;56.18;100789.06;5040601;28;70215;-38
2022/06/16 05:44:42;;;;;;;12.57;11.48;;;;;;;33.34;56.05;100797.81;5038403;28;65933;-40
2022/06/16 05:47:31;;;;;;;12.38;11.38;;;;;;;33.33;56.22;100797.00;5046125;28;70263;-39
2022/06/16 05:50:04;;;;;;;12.23;11.20;;;;;;;33.40;55.99;100796.03;5052321;28;66281;-39
2022/06/16 05:52:35;;;;;;;12.10;11.10;;;;;;;33.40;56.02;100793.31;5044378;28;70356;-39
2022/06/16 05:55:29;;;;;;;11.38;10.68;;;;;;;33.42;56.33;100789.28;5041100;28;66360;-39
2022/06/16 05:58:01;;;;;;;11.77;10.97;;;;;;;33.42;55.93;100783.03;5068186;28;70451;-40
2022/06/16 06:00:42;;;;;;;11.95;10.95;;;;;;;33.44;55.92;100775.47;5066724;28;65924;-38
2022/06/16 06:03:17;;;;;;;12.75;11.50;;;;;;;33.51;55.76;100776.13;5036002;28;69587;-39
2022/06/16 06:05:48;;;;;;;11.15;10.45;;;;;;;33.52;56.06;100772.38;5064320;28;65699;-40
2022/06/16 06:16:55;;;;;;;12.30;11.15;;;;;;;33.66;55.92;100745.75;5071970;28;65636;-38
2022/06/16 06:19:31;;;;;;;10.90;10.20;;;;;;;33.70;55.58;100750.44;5066906;28;69424;-39
2022/06/16 06:22:07;;;;;;;12.30;11.20;;;;;;;33.71;55.25;100737.66;5072671;28;66682;-39
2022/06/16 06:24:40;;;;;;;12.07;11.07;;;;;;;33.76;55.39;100735.03;5050173;28;70369;-39
2022/06/16 06:27:37;;;;;;;12.43;11.35;;;;;;;33.78;55.41;100733.72;5064406;28;65604;-39
2022/06/16 06:30:23;;;;;;;12.05;11.10;;;;;;;33.75;55.49;100726.06;5073627;28;69827;-38
2022/06/16 06:32:55;;;;;;;12.35;11.48;;;;;;;33.84;55.61;100720.22;5075876;28;66417;-38
2022/06/16 06:35:26;;;;;;;11.80;11.00;;;;;;;33.86;55.72;100718.09;5068965;28;70240;-39
2022/06/16 06:37:58;;;;;;;12.20;11.20;;;;;;;33.91;55.52;100710.03;5056868;28;65423;-39
2022/06/16 06:40:33;;;;;;;11.83;11.13;;;;;;;33.93;55.22;100702.41;5057936;28;70084;-39
2022/06/16 06:43:04;;;;;;;12.57;11.48;;;;;;;33.96;55.51;100700.06;5050320;28;66044;-39
2022/06/16 06:45:35;;;;;;;12.40;11.00;;;;;;;33.95;55.54;100686.69;5067129;28;70274;-39
2022/06/16 06:48:07;;;;;;;12.80;11.88;;;;;;;34.02;55.29;100687.38;5058331;28;65323;-39
2022/06/16 06:50:38;;;;;;;;;;;;;;;33.74;56.05;100686.34;5052572;28;70345;-39
2022/06/16 06:53:10;;;;;;;14.15;11.38;;;;;;;34.06;55.43;100668.66;5046031;28;67079;-39
2022/06/16 06:55:44;;;;;;;12.32;11.35;;;;;;;33.83;55.05;100621.47;5055138;28;69953;-39
2022/06/16 06:58:24;;;;;;;12.10;11.10;;;;;;;33.70;55.00;100595.38;5046274;28;65783;-39
2022/06/16 07:00:54;;;;;;;12.55;11.52;;;;;;;34.21;55.16;100661.56;5055315;28;70179;-39
2022/06/16 07:03:25;;;;;;;12.80;11.77;;;;;;;34.19;55.01;100641.94;5055800;28;65916;-39
2022/06/16 07:05:58;;;;;;;11.85;10.85;;;;;;;34.26;55.38;100642.56;5050756;28;69830;-40
2022/06/16 07:08:29;;;;;;;12.35;11.48;;;;;;;34.31;55.04;100636.38;5033510;28;65884;-40
2022/06/16 07:11:00;;;;;;;;;;;;;;;34.03;55.53;100631.84;5041199;28;69622;-39
2022/06/16 07:13:31;;;;;;;12.02;11.13;;;;;;;34.36;55.03;100630.22;5044790;28;66670;-40
2022/06/16 07:16:02;;;;;;;12.40;11.30;;;;;;;34.37;54.63;100623.69;5033217;28;69611;-38
2022/06/16 07:18:33;;;;;;;11.87;10.80;;;;;;;34.43;54.69;100620.75;5052377;28;67402;-38
2022/06/16 07:21:04;;;;;;;12.10;11.23;;;;;;;34.44;54.69;100616.16;5052591;28;70092;-39
2022/06/16 07:23:35;;;;;;;13.07;11.37;;;;;;;34.42;54.97;100602.78;5058661;28;68226;-39
2022/06/16 07:26:11;;;;;;;11.68;10.93;;;;;;;34.51;54.60;100614.06;5055016;28;70519;-39
2022/06/16 07:28:42;;;;;;;11.80;10.90;;;;;;;34.55;54.63;100614.38;5048010;27;66416;-39
2022/06/16 07:31:14;;;;;;;12.73;11.52;;;;;;;34.58;54.28;100608.47;5032147;28;68980;-40
2022/06/16 07:34:05;;;;;;;12.73;11.73;;;;;;;34.56;54.29;100603.28;5043444;28;65797;-41
2022/06/16 07:36:36;;;;;;;11.38;10.55;;;;;;;34.56;54.54;100586.94;5045791;28;69684;-40
2022/06/16 07:39:07;;;;;;;13.50;11.70;;;;;;;34.52;54.23;100580.31;5046549;28;67460;-39
2022/06/16 07:41:39;;;;;;;12.23;11.20;;;;;;;34.57;54.04;100583.13;5043630;28;71302;-39
2022/06/16 07:44:13;;;;;;;11.82;10.82;;;;;;;34.69;54.17;100589.28;5046140;28;66639;-38
2022/06/16 07:46:49;;;;;;;12.60;11.23;;;;;;;34.70;54.06;100588.19;5056497;28;69354;-39
2022/06/16 07:49:25;;;;;;;12.18;11.13;;;;;;;34.29;54.00;100521.47;5052804;28;66553;-39
2022/06/16 07:52:00;;;;;;;11.45;10.65;;;;;;;34.74;54.06;100585.78;5051823;28;69758;-40
2022/06/16 07:54:31;;;;;;;12.18;11.00;;;;;;;34.73;54.08;100580.59;5049083;27;65728;-40
2022/06/16 07:57:21;;;;;;;12.35;11.35;;;;;;;34.75;53.77;100578.47;5052879;28;70121;-38
2022/06/16 07:59:58;;;;;;;12.70;11.63;;;;;;;34.38;54.18;100511.78;5067165;27;65940;-39
2022/06/16 08:02:40;;;;;;;12.57;11.32;;;;;;;34.75;53.77;100567.56;5050260;28;70330;-39
2022/06/16 08:05:12;;;;;;;12.10;11.17;;;;;;;34.70;53.89;100558.22;5047502;28;65308;-38
2022/06/16 08:07:43;;;;;;;14.95;11.82;;;;;;;34.73;54.26;100566.97;5057832;28;69888;-39
2022/06/16 08:10:18;;;;;;;13.32;11.30;;;;;;;34.74;53.89;100574.06;5049530;28;64989;-41
2022/06/16 08:12:48;;;;;;;11.32;10.27;;;;;;;34.75;54.17;100575.72;5053935;28;70312;-39
2022/06/16 08:15:19;;;;;;;11.43;10.52;;;;;;;34.77;53.91;100570.81;5058220;28;66575;-39
2022/06/16 08:17:54;;;;;;;11.35;10.30;;;;;;;34.76;53.80;100571.91;5056328;28;69240;-38
2022/06/16 08:20:25;;;;;;;11.80;10.95;;;;;;;34.76;54.15;100571.91;5058663;28;66128;-41
2022/06/16 08:23:00;;;;;;;10.85;10.05;;;;;;;34.71;54.26;100561.78;5050636;28;69179;-38
2022/06/16 08:25:31;;;;;;;11.98;10.75;;;;;;;34.76;54.17;100563.75;5056286;28;65074;-39
2022/06/16 08:28:07;;;;;;;11.82;10.73;;;;;;;34.76;53.81;100552.84;5067490;28;70002;-38
2022/06/16 08:30:41;;;;;;;11.30;10.40;;;;;;;34.29;54.39;100463.47;5055677;28;66087;-39
2022/06/16 08:33:15;;;;;;;10.82;9.95;;;;;;;34.70;54.36;100533.72;5061060;28;69559;-39
2022/06/16 08:35:46;;;;;;;11.77;10.80;;;;;;;34.47;54.33;100495.81;5055666;28;66637;-38
2022/06/16 08:38:17;;;;;;;11.68;10.68;;;;;;;34.72;54.25;100546.28;5046117;28;70249;-39
2022/06/16 08:41:11;;;;;;;10.85;10.00;;;;;;;34.76;54.24;100552.84;5046232;28;66507;-39
2022/06/16 08:43:57;;;;;;;12.52;11.35;;;;;;;34.78;54.37;100550.69;5047447;28;70406;-39
2022/06/16 08:46:35;;;;;;;12.55;11.25;;;;;;;34.68;54.33;100541.31;5051130;28;66247;-39
2022/06/16 08:49:23;;;;;;;11.88;10.95;;;;;;;34.42;54.12;100495.75;5050448;28;71326;-40
2022/06/16 08:52:08;;;;;;;14.07;11.18;;;;;;;34.43;54.35;100494.69;5053742;28;65540;-39
2022/06/16 08:55:04;;;;;;;11.50;10.48;;;;;;;34.76;54.16;100544.66;5051526;28;69750;-38
2022/06/16 08:57:34;;;;;;;12.07;11.13;;;;;;;34.81;54.23;100534.66;5049623;28;66566;-43
2022/06/16 09:00:18;;;;;;;11.35;10.45;;;;;;;34.83;54.17;100542.59;5064820;27;70156;-39
2022/06/16 09:03:07;;;;;;;11.93;10.75;;;;;;;34.80;54.23;100524.00;5045723;28;65476;-38
2022/06/16 09:05:59;;;;;;;12.93;10.80;;;;;;;34.83;53.87;100523.50;5050688;28;70312;-41
2022/06/16 09:08:56;;;;;;;11.35;10.00;;;;;;;34.73;53.85;100526.13;5045059;28;65874;-38
2022/06/16 09:11:57;;;;;;;12.10;11.10;;;;;;;34.79;53.92;100525.09;5062224;27;70580;-38
2022/06/16 09:15:20;;;;;;;11.80;10.63;;;;;;;34.48;54.40;100475.69;5054113;28;65895;-38
2022/06/16 09:18:17;;;;;;;11.98;10.95;;;;;;;34.69;54.10;100521.19;5053743;28;70133;-39
2022/06/16 09:21:12;;;;;;;11.13;10.27;;;;;;;34.79;53.86;100514.19;5054994;28;66261;-39
2022/06/16 09:24:11;;;;;;;11.48;10.35;;;;;;;34.04;54.57;100402.16;5060267;28;69678;-44
2022/06/16 09:27:25;;;;;;;14.77;10.68;;;;;;;34.72;54.06;100517.13;5066799;28;65161;-39
2022/06/16 09:30:02;;;;;;;10.80;9.80;;;;;;;34.53;54.28;100486.63;5050200;28;70116;-38
2022/06/16 09:32:40;;;;;;;10.48;9.65;;;;;;;34.72;53.94;100516.31;5056275;28;66610;-40
2022/06/16 09:35:41;;;;;;;10.30;9.30;;;;;;;34.35;54.08;100465.16;5054309;28;70278;-39
2022/06/16 09:38:27;;;;;;;10.60;9.82;;;;;;;34.80;54.17;100530.28;5044658;28;66260;-39
2022/06/16 09:42:32;;;;;;;10.95;10.00;;;;;;;34.70;54.77;100533.72;5048309;28;69105;-39
2022/06/16 09:44:09;;;;;;;10.40;9.65;;;;;;;34.76;54.54;100520.16;5046554;28;66387;-39
2022/06/16 09:46:46;;;;;;;9.35;8.75;;;;;;;34.48;54.50;100486.56;5044376;28;69311;-39
2022/06/16 09:49:36;;;;;;;9.43;8.68;;;;;;;34.74;54.27;100525.03;5046293;28;66315;-39
2022/06/16 09:52:45;;;;;;;10.23;8.90;;;;;;;34.41;54.66;100483.25;5053330;28;69950;-39
2022/06/16 09:55:34;;;;;;;9.77;9.07;;;;;;;34.59;55.02;100534.66;5051959;28;66294;-39
2022/06/16 09:58:18;;;;;;;;;;;;;;;34.42;55.59;100544.78;5055029;28;70136;-39
2022/06/16 10:00:53;;;;;;;12.55;8.73;;;;;;;34.72;54.70;100551.72;5048513;28;66467;-39
2022/06/16 10:03:44;;;;;;;9.88;8.50;;;;;;;34.68;54.76;100560.38;5054737;28;69737;-38
2022/06/16 10:06:48;;;;;;;11.48;8.48;;;;;;;34.63;54.96;100560.34;5055732;28;65446;-38
2022/06/16 10:09:49;;;;;;;8.98;8.40;;;;;;;34.46;57.51;100565.81;5048416;28;69709;-37
2022/06/16 10:12:57;;;;;;;9.07;8.25;;;;;;;34.29;59.33;100570.47;5053597;28;66344;-37
2022/06/16 10:15:34;;;;;;;8.68;7.53;;;;;;;34.31;59.73;100575.66;5048122;28;70717;-37
2022/06/16 10:18:06;;;;;;;14.57;8.02;;;;;;;34.20;59.89;100553.75;5045921;28;65395;-39
2022/06/16 10:20:38;;;;;;;8.18;7.38;;;;;;;34.11;60.72;100563.41;5045406;28;70016;-38
2022/06/16 10:23:24;;;;;;;12.70;8.13;;;;;;;33.99;61.75;100568.94;5052095;28;66365;-39
2022/06/16 10:26:02;;;;;;;8.10;7.40;;;;;;;33.86;61.58;100572.00;5052936;28;69707;-38
2022/06/16 10:28:35;;;;;;;15.73;8.40;;;;;;;33.85;62.88;100583.09;5052754;28;66341;-36
2022/06/16 10:31:07;;;;;;;12.20;8.65;;;;;;;33.31;63.93;100510.94;5051128;28;70337;-37
2022/06/16 10:33:54;;;;;;;18.20;8.93;;;;;;;33.73;63.36;100594.06;5053288;28;66109;-37
2022/06/16 10:36:26;;;;;;;13.10;9.52;;;;;;;33.66;63.44;100596.97;5046135;28;69518;-36
2022/06/16 10:39:15;;;;;;;28.95;10.40;;;;;;;33.64;63.41;100601.81;5045488;28;64933;-36
2022/06/16 10:42:20;;;;;;;11.80;8.82;;;;;;;33.38;63.00;100555.13;5049190;28;70192;-37
2022/06/16 10:45:12;;;;;;;13.88;7.50;;;;;;;33.54;63.90;100602.47;5045949;28;66294;-37
2022/06/16 10:47:54;;;;;;;13.68;8.80;;;;;;;33.13;63.90;100535.66;5043537;28;69581;-37
2022/06/16 10:50:39;;;;;;;27.33;10.15;;;;;;;33.60;63.68;100611.56;5048053;28;65999;-37
2022/06/16 10:53:30;;;;;;;19.27;9.15;;;;;;;33.57;64.01;100620.19;5045606;28;70375;-36
2022/06/16 10:56:07;;;;;;;24.63;10.38;;;;;;;33.59;64.22;100607.16;5046478;28;65596;-37
2022/06/16 10:58:46;;;;;;;14.93;8.60;;;;;;;33.13;63.89;100538.38;5046135;28;70493;-37
2022/06/16 11:01:35;;;;;;;14.27;7.45;;;;;;;33.45;64.12;100594.94;5038824;28;66289;-37
2022/06/16 11:04:12;;;;;;;9.77;7.03;;;;;;;33.47;63.71;100600.94;5044028;28;69395;-37
2022/06/16 11:06:55;;;;;;;13.98;6.57;;;;;;;32.91;63.97;100522.72;5044709;28;66071;-38
2022/06/16 11:09:30;;;;;;;8.55;6.65;;;;;;;33.28;63.88;100584.84;5048093;28;70105;-38
2022/06/16 11:12:05;;;;;;;8.32;7.22;;;;;;;33.28;64.24;100603.06;5041663;28;65941;-38
2022/06/16 11:14:47;;;;;;;15.18;6.93;;;;;;;32.86;64.23;100544.34;5041188;28;69589;-37
2022/06/16 11:17:23;;;;;;;8.82;7.97;;;;;;;33.31;64.13;100616.97;5049214;28;66555;-37
2022/06/16 11:20:00;;;;;;;13.65;7.75;;;;;;;32.96;63.59;100556.47;5043638;28;70209;-36
2022/06/16 11:22:39;;;;;;;14.73;7.65;;;;;;;33.21;63.28;100597.78;5043916;28;66161;-37
2022/06/16 11:25:30;;;;;;;9.18;7.55;;;;;;;32.78;63.08;100544.72;5046879;28;69940;-37
2022/06/16 11:28:10;;;;;;;8.45;7.72;;;;;;;32.43;62.98;100491.34;5048489;28;65621;-37
2022/06/16 11:31:02;;;;;;;9.65;7.22;;;;;;;33.24;62.66;100624.47;5044148;28;70674;-37
2022/06/16 11:34:20;;;;;;;14.90;7.38;;;;;;;33.12;62.47;100629.09;5049589;28;66681;-37
2022/06/16 11:37:08;;;;;;;12.52;8.00;;;;;;;33.17;62.41;100617.50;5050724;28;70210;-38
2022/06/16 11:39:43;;;;;;;11.93;7.60;;;;;;;33.17;62.62;100622.94;5045085;28;66063;-38
2022/06/16 11:42:40;;;;;;;13.18;9.00;;;;;;;33.04;62.82;100618.63;5052229;28;69435;-37
2022/06/16 11:45:55;;;;;;;11.15;9.88;;;;;;;32.98;63.25;100622.28;5043395;28;66491;-39
2022/06/16 11:48:28;;;;;;;13.95;11.40;;;;;;;33.07;63.14;100639.88;5054409;28;69667;-38
2022/06/16 11:51:31;;;;;;;15.13;11.23;;;;;;;32.92;63.18;100643.91;5056967;28;66042;-37
2022/06/16 11:54:20;;;;;;;17.30;12.25;;;;;;;33.08;62.58;100646.97;5055812;28;69963;-37
2022/06/16 11:57:11;;;;;;;15.55;12.13;;;;;;;33.06;62.90;100657.25;5046209;28;65903;-37
2022/06/16 11:59:56;;;;;;;13.80;11.30;;;;;;;33.04;62.33;100662.09;5048607;28;69170;-38
2022/06/16 12:02:29;;;;;;;16.30;12.15;;;;;;;33.03;62.56;100668.59;5031245;28;65982;-38
2022/06/16 12:05:09;;;;;;;19.33;11.38;;;;;;;32.94;62.56;100673.56;5048390;28;70247;-38
2022/06/16 12:07:58;;;;;;;12.70;10.00;;;;;;;32.98;62.53;100679.31;5044702;28;66265;-37
2022/06/16 12:10:40;;;;;;;12.68;9.80;;;;;;;32.98;62.45;100687.47;5051613;28;69263;-36
2022/06/16 12:13:43;;;;;;;17.58;9.23;;;;;;;33.01;62.30;100695.19;5047501;28;66209;-36
2022/06/16 12:16:22;;;;;;;10.50;9.38;;;;;;;33.00;62.08;100702.50;5047871;28;70296;-37
2022/06/16 12:19:08;;;;;;;14.65;9.80;;;;;;;32.94;62.11;100704.25;5058110;28;66449;-37
2022/06/16 12:21:57;;;;;;;11.15;10.15;;;;;;;32.59;61.99;100660.00;5026268;28;69910;-37
2022/06/16 12:24:57;;;;;;;17.02;10.32;;;;;;;32.81;62.44;100720.81;5050489;28;66288;-37
2022/06/16 12:27:51;;;;;;;22.77;11.38;;;;;;;32.86;61.95;100726.38;5014493;28;69360;-37
2022/06/16 12:30:32;;;;;;;15.55;9.98;;;;;;;32.94;61.87;100733.31;5014581;28;65798;-37
2022/06/16 12:33:16;;;;;;;12.07;10.40;;;;;;;32.93;62.14;100743.38;5025189;28;70989;-39
2022/06/16 12:36:32;;;;;;;12.07;9.65;;;;;;;32.91;61.74;100742.78;5023383;28;65324;-37
2022/06/16 12:39:18;;;;;;;14.85;9.82;;;;;;;32.98;61.43;100741.81;5024535;28;69965;-37
2022/06/16 12:41:55;;;;;;;12.13;8.35;;;;;;;33.07;61.49;100754.00;5021612;28;66193;-38